METAR Data
IDs: Format: Raw Decoded Include TAF

Data at: 0234 UTC 14 Dec 2018

METAR for:KELA (Eagle Lake Arpt, TX, US)
Text:KELA 140215Z AUTO 29017G29KT 10SM CLR 12/04 A2984 RMK AO2 T01170036
Temperature: 11.7°C ( 53°F)
Dewpoint: 3.6°C ( 38°F) [RH = 58%]
Pressure (altimeter):29.84 inches Hg (1010.6 mb)
Winds:from the WNW (290 degrees) at 20 MPH (17 knots; 8.7 m/s) gusting to 33 MPH (29 knots; 14.9 m/s)
Visibility:10 or more sm (16+ km)
Ceiling:at least 12,000 feet AGL
Clouds:sky clear below 12,000 feet AGL
QC Flag:automated observation with no human augmentation

TAF for:KELA (Eagle Lake Arpt, TX, US)
Text:No data found